sensor_id;sensor_type;location;lat;lon;timestamp;P1;P2;P0
77699;PMS5003;66867;42.658;23.320;2023-04-24T00:00:01;41;37;
77699;PMS5003;66867;42.658;23.320;2023-04-24T00:01:00;44;38;
77699;PMS5003;66867;42.658;23.320;2023-04-24T00:02:00;44;38;
77699;PMS5003;66867;42.658;23.320;2023-04-24T00:03:00;38;35;
77699;PMS5003;66867;42.658;23.320;2023-04-24T00:04:00;44;37;
77699;PMS5003;66867;42.658;23.320;2023-04-24T00:05:01;42;38;
77699;PMS5003;66867;42.658;23.320;2023-04-24T00:06:00;45;37;
77699;PMS5003;66867;42.658;23.320;2023-04-24T00:07:00;40;37;
77699;PMS5003;66867;42.658;23.320;2023-04-24T00:08:00;44;38;
77699;PMS5003;66867;42.658;23.320;2023-04-24T00:09:00;42;37;
77699;PMS5003;66867;42.658;23.320;2023-04-24T00:10:00;47;40;
77699;PMS5003;66867;42.658;23.320;2023-04-24T00:11:00;44;38;
77699;PMS5003;66867;42.658;23.320;2023-04-24T00:12:00;43;38;
77699;PMS5003;66867;42.658;23.320;2023-04-24T00:13:00;43;38;
77699;PMS5003;66867;42.658;23.320;2023-04-24T00:14:00;47;40;
77699;PMS5003;66867;42.658;23.320;2023-04-24T00:15:01;41;37;
77699;PMS5003;66867;42.658;23.320;2023-04-24T00:16:00;46;39;
77699;PMS5003;66867;42.658;23.320;2023-04-24T00:17:00;42;37;
77699;PMS5003;66867;42.658;23.320;2023-04-24T00:18:00;49;40;
77699;PMS5003;66867;42.658;23.320;2023-04-24T00:19:00;41;37;
77699;PMS5003;66867;42.658;23.320;2023-04-24T00:20:00;40;36;
77699;PMS5003;66867;42.658;23.320;2023-04-24T00:21:00;40;36;
77699;PMS5003;66867;42.658;23.320;2023-04-24T00:22:00;44;38;
77699;PMS5003;66867;42.658;23.320;2023-04-24T00:23:00;42;38;
77699;PMS5003;66867;42.658;23.320;2023-04-24T00:24:00;40;37;
77699;PMS5003;66867;42.658;23.320;2023-04-24T00:25:00;40;37;
77699;PMS5003;66867;42.658;23.320;2023-04-24T00:26:00;48;41;
77699;PMS5003;66867;42.658;23.320;2023-04-24T00:27:00;39;35;
77699;PMS5003;66867;42.658;23.320;2023-04-24T00:28:00;47;40;
77699;PMS5003;66867;42.658;23.320;2023-04-24T00:29:00;41;37;
77699;PMS5003;66867;42.658;23.320;2023-04-24T00:30:00;41;37;
77699;PMS5003;66867;42.658;23.320;2023-04-24T00:31:00;42;38;
77699;PMS5003;66867;42.658;23.320;2023-04-24T00:32:00;45;39;
77699;PMS5003;66867;42.658;23.320;2023-04-24T00:33:00;39;36;
77699;PMS5003;66867;42.658;23.320;2023-04-24T00:34:02;37;35;
77699;PMS5003;66867;42.658;23.320;2023-04-24T00:35:00;44;38;
77699;PMS5003;66867;42.658;23.320;2023-04-24T00:36:00;42;37;
77699;PMS5003;66867;42.658;23.320;2023-04-24T00:37:00;41;37;
77699;PMS5003;66867;42.658;23.320;2023-04-24T00:38:00;45;38;
77699;PMS5003;66867;42.658;23.320;2023-04-24T00:39:00;42;38;
77699;PMS5003;66867;42.658;23.320;2023-04-24T00:40:00;49;41;
77699;PMS5003;66867;42.658;23.320;2023-04-24T00:41:00;41;37;
77699;PMS5003;66867;42.658;23.320;2023-04-24T00:42:00;42;37;
77699;PMS5003;66867;42.658;23.320;2023-04-24T00:43:00;42;37;
77699;PMS5003;66867;42.658;23.320;2023-04-24T00:44:00;40;37;
77699;PMS5003;66867;42.658;23.320;2023-04-24T00:45:00;37;35;
77699;PMS5003;66867;42.658;23.320;2023-04-24T00:46:00;36;34;
77699;PMS5003;66867;42.658;23.320;2023-04-24T00:47:00;40;36;
77699;PMS5003;66867;42.658;23.320;2023-04-24T00:48:00;39;36;
77699;PMS5003;66867;42.658;23.320;2023-04-24T00:49:00;40;35;
77699;PMS5003;66867;42.658;23.320;2023-04-24T00:50:04;38;35;
77699;PMS5003;66867;42.658;23.320;2023-04-24T00:51:00;40;35;
77699;PMS5003;66867;42.658;23.320;2023-04-24T00:52:00;38;35;
77699;PMS5003;66867;42.658;23.320;2023-04-24T00:53:00;36;34;
77699;PMS5003;66867;42.658;23.320;2023-04-24T00:54:01;38;34;
77699;PMS5003;66867;42.658;23.320;2023-04-24T00:55:00;37;35;
77699;PMS5003;66867;42.658;23.320;2023-04-24T00:56:01;37;34;
77699;PMS5003;66867;42.658;23.320;2023-04-24T00:57:02;36;33;
77699;PMS5003;66867;42.658;23.320;2023-04-24T00:58:00;41;37;
77699;PMS5003;66867;42.658;23.320;2023-04-24T00:59:00;33;32;
77699;PMS5003;66867;42.658;23.320;2023-04-24T01:00:00;36;34;
77699;PMS5003;66867;42.658;23.320;2023-04-24T01:01:00;37;34;
77699;PMS5003;66867;42.658;23.320;2023-04-24T01:02:00;30;30;
77699;PMS5003;66867;42.658;23.320;2023-04-24T01:03:01;42;37;
77699;PMS5003;66867;42.658;23.320;2023-04-24T01:04:00;39;36;
77699;PMS5003;66867;42.658;23.320;2023-04-24T01:05:01;40;35;
77699;PMS5003;66867;42.658;23.320;2023-04-24T01:06:00;38;35;
77699;PMS5003;66867;42.658;23.320;2023-04-24T01:07:00;36;34;
77699;PMS5003;66867;42.658;23.320;2023-04-24T01:08:01;37;34;
77699;PMS5003;66867;42.658;23.320;2023-04-24T01:09:00;39;36;
77699;PMS5003;66867;42.658;23.320;2023-04-24T01:10:00;37;35;
77699;PMS5003;66867;42.658;23.320;2023-04-24T01:11:03;41;37;
77699;PMS5003;66867;42.658;23.320;2023-04-24T01:12:00;34;33;
77699;PMS5003;66867;42.658;23.320;2023-04-24T01:13:00;39;33;
77699;PMS5003;66867;42.658;23.320;2023-04-24T01:14:01;33;31;
77699;PMS5003;66867;42.658;23.320;2023-04-24T01:15:00;37;34;
77699;PMS5003;66867;42.658;23.320;2023-04-24T01:16:00;37;34;
77699;PMS5003;66867;42.658;23.320;2023-04-24T01:17:00;37;34;
77699;PMS5003;66867;42.658;23.320;2023-04-24T01:18:00;34;33;
77699;PMS5003;66867;42.658;23.320;2023-04-24T01:19:00;34;33;
77699;PMS5003;66867;42.658;23.320;2023-04-24T01:20:00;37;35;
77699;PMS5003;66867;42.658;23.320;2023-04-24T01:21:03;35;32;
77699;PMS5003;66867;42.658;23.320;2023-04-24T01:22:02;32;30;
77699;PMS5003;66867;42.658;23.320;2023-04-24T01:23:00;26;26;
77699;PMS5003;66867;42.658;23.320;2023-04-24T01:24:00;29;28;
77699;PMS5003;66867;42.658;23.320;2023-04-24T01:25:00;27;26;
77699;PMS5003;66867;42.658;23.320;2023-04-24T01:26:00;28;27;
77699;PMS5003;66867;42.658;23.320;2023-04-24T01:27:00;33;32;
77699;PMS5003;66867;42.658;23.320;2023-04-24T01:28:01;33;31;
77699;PMS5003;66867;42.658;23.320;2023-04-24T01:29:00;29;29;
77699;PMS5003;66867;42.658;23.320;2023-04-24T01:30:00;32;32;
77699;PMS5003;66867;42.658;23.320;2023-04-24T01:31:00;32;28;
77699;PMS5003;66867;42.658;23.320;2023-04-24T01:32:00;29;28;
77699;PMS5003;66867;42.658;23.320;2023-04-24T01:33:00;30;30;
77699;PMS5003;66867;42.658;23.320;2023-04-24T01:34:00;29;29;
77699;PMS5003;66867;42.658;23.320;2023-04-24T01:35:00;31;30;
77699;PMS5003;66867;42.658;23.320;2023-04-24T01:36:00;31;30;
77699;PMS5003;66867;42.658;23.320;2023-04-24T01:37:00;35;32;
77699;PMS5003;66867;42.658;23.320;2023-04-24T01:38:00;28;28;
77699;PMS5003;66867;42.658;23.320;2023-04-24T01:39:00;33;32;
77699;PMS5003;66867;42.658;23.320;2023-04-24T01:40:00;33;32;
77699;PMS5003;66867;42.658;23.320;2023-04-24T01:41:00;32;30;
77699;PMS5003;66867;42.658;23.320;2023-04-24T01:42:00;25;25;
77699;PMS5003;66867;42.658;23.320;2023-04-24T01:43:00;28;28;
77699;PMS5003;66867;42.658;23.320;2023-04-24T01:44:00;25;24;
77699;PMS5003;66867;42.658;23.320;2023-04-24T01:45:02;34;33;
77699;PMS5003;66867;42.658;23.320;2023-04-24T01:46:00;34;32;
77699;PMS5003;66867;42.658;23.320;2023-04-24T01:47:01;31;29;
77699;PMS5003;66867;42.658;23.320;2023-04-24T01:48:00;29;27;
77699;PMS5003;66867;42.658;23.320;2023-04-24T01:49:00;32;32;
77699;PMS5003;66867;42.658;23.320;2023-04-24T01:50:00;32;29;
77699;PMS5003;66867;42.658;23.320;2023-04-24T01:51:00;31;28;
77699;PMS5003;66867;42.658;23.320;2023-04-24T01:52:00;27;26;
77699;PMS5003;66867;42.658;23.320;2023-04-24T01:53:00;31;31;
77699;PMS5003;66867;42.658;23.320;2023-04-24T01:54:00;33;32;
77699;PMS5003;66867;42.658;23.320;2023-04-24T01:55:00;29;27;
77699;PMS5003;66867;42.658;23.320;2023-04-24T01:56:00;27;27;
77699;PMS5003;66867;42.658;23.320;2023-04-24T01:57:00;32;31;
77699;PMS5003;66867;42.658;23.320;2023-04-24T01:58:01;29;28;
77699;PMS5003;66867;42.658;23.320;2023-04-24T01:59:02;31;30;
77699;PMS5003;66867;42.658;23.320;2023-04-24T02:00:00;29;27;
77699;PMS5003;66867;42.658;23.320;2023-04-24T02:01:00;30;28;
77699;PMS5003;66867;42.658;23.320;2023-04-24T02:02:00;25;25;
77699;PMS5003;66867;42.658;23.320;2023-04-24T02:03:00;30;26;
77699;PMS5003;66867;42.658;23.320;2023-04-24T02:04:00;26;26;
77699;PMS5003;66867;42.658;23.320;2023-04-24T02:05:00;33;32;
77699;PMS5003;66867;42.658;23.320;2023-04-24T02:06:00;30;30;
77699;PMS5003;66867;42.658;23.320;2023-04-24T02:07:00;29;29;
77699;PMS5003;66867;42.658;23.320;2023-04-24T02:08:00;30;26;
77699;PMS5003;66867;42.658;23.320;2023-04-24T02:09:00;29;28;
77699;PMS5003;66867;42.658;23.320;2023-04-24T02:10:00;31;29;
77699;PMS5003;66867;42.658;23.320;2023-04-24T02:11:00;26;26;
77699;PMS5003;66867;42.658;23.320;2023-04-24T02:12:00;28;28;
77699;PMS5003;66867;42.658;23.320;2023-04-24T02:13:00;31;30;
77699;PMS5003;66867;42.658;23.320;2023-04-24T02:14:00;30;29;
77699;PMS5003;66867;42.658;23.320;2023-04-24T02:15:00;32;31;
77699;PMS5003;66867;42.658;23.320;2023-04-24T02:16:00;31;31;
77699;PMS5003;66867;42.658;23.320;2023-04-24T02:17:00;33;32;
77699;PMS5003;66867;42.658;23.320;2023-04-24T02:18:00;32;32;
77699;PMS5003;66867;42.658;23.320;2023-04-24T02:19:00;30;29;
77699;PMS5003;66867;42.658;23.320;2023-04-24T02:20:00;35;32;
77699;PMS5003;66867;42.658;23.320;2023-04-24T02:21:00;38;33;
77699;PMS5003;66867;42.658;23.320;2023-04-24T02:22:00;31;31;
77699;PMS5003;66867;42.658;23.320;2023-04-24T02:23:00;34;32;
77699;PMS5003;66867;42.658;23.320;2023-04-24T02:24:00;33;32;
77699;PMS5003;66867;42.658;23.320;2023-04-24T02:25:00;32;32;
77699;PMS5003;66867;42.658;23.320;2023-04-24T02:26:00;27;26;
77699;PMS5003;66867;42.658;23.320;2023-04-24T02:27:00;30;29;
77699;PMS5003;66867;42.658;23.320;2023-04-24T02:28:00;29;29;
77699;PMS5003;66867;42.658;23.320;2023-04-24T02:29:00;29;28;
77699;PMS5003;66867;42.658;23.320;2023-04-24T02:30:00;30;29;
77699;PMS5003;66867;42.658;23.320;2023-04-24T02:31:00;29;28;
77699;PMS5003;66867;42.658;23.320;2023-04-24T02:32:00;34;33;
77699;PMS5003;66867;42.658;23.320;2023-04-24T02:33:00;31;30;
77699;PMS5003;66867;42.658;23.320;2023-04-24T02:34:00;30;30;
77699;PMS5003;66867;42.658;23.320;2023-04-24T02:35:00;31;30;
77699;PMS5003;66867;42.658;23.320;2023-04-24T02:36:01;27;27;
77699;PMS5003;66867;42.658;23.320;2023-04-24T02:37:00;30;29;
77699;PMS5003;66867;42.658;23.320;2023-04-24T02:38:00;29;29;
77699;PMS5003;66867;42.658;23.320;2023-04-24T02:39:00;27;26;
77699;PMS5003;66867;42.658;23.320;2023-04-24T02:40:00;28;28;
77699;PMS5003;66867;42.658;23.320;2023-04-24T02:41:00;28;28;
77699;PMS5003;66867;42.658;23.320;2023-04-24T02:42:00;30;30;
77699;PMS5003;66867;42.658;23.320;2023-04-24T02:43:00;32;32;
77699;PMS5003;66867;42.658;23.320;2023-04-24T02:44:00;28;27;
77699;PMS5003;66867;42.658;23.320;2023-04-24T02:45:00;30;29;
77699;PMS5003;66867;42.658;23.320;2023-04-24T02:46:00;27;27;
77699;PMS5003;66867;42.658;23.320;2023-04-24T02:47:00;30;29;
77699;PMS5003;66867;42.658;23.320;2023-04-24T02:48:00;29;29;
77699;PMS5003;66867;42.658;23.320;2023-04-24T02:49:00;29;27;
77699;PMS5003;66867;42.658;23.320;2023-04-24T02:50:01;30;28;
77699;PMS5003;66867;42.658;23.320;2023-04-24T02:51:00;26;24;
77699;PMS5003;66867;42.658;23.320;2023-04-24T02:52:00;29;29;
77699;PMS5003;66867;42.658;23.320;2023-04-24T02:53:00;30;29;
77699;PMS5003;66867;42.658;23.320;2023-04-24T02:54:00;28;27;
77699;PMS5003;66867;42.658;23.320;2023-04-24T02:55:00;29;28;
77699;PMS5003;66867;42.658;23.320;2023-04-24T02:56:00;28;28;
77699;PMS5003;66867;42.658;23.320;2023-04-24T02:57:00;31;31;
77699;PMS5003;66867;42.658;23.320;2023-04-24T02:58:00;28;28;
77699;PMS5003;66867;42.658;23.320;2023-04-24T02:59:00;30;30;
77699;PMS5003;66867;42.658;23.320;2023-04-24T03:00:00;32;31;
77699;PMS5003;66867;42.658;23.320;2023-04-24T03:01:00;30;30;
77699;PMS5003;66867;42.658;23.320;2023-04-24T03:02:00;31;30;
77699;PMS5003;66867;42.658;23.320;2023-04-24T03:03:00;29;27;
77699;PMS5003;66867;42.658;23.320;2023-04-24T03:04:01;32;30;
77699;PMS5003;66867;42.658;23.320;2023-04-24T03:05:00;32;32;
77699;PMS5003;66867;42.658;23.320;2023-04-24T03:06:00;29;29;
77699;PMS5003;66867;42.658;23.320;2023-04-24T03:07:00;35;33;
77699;PMS5003;66867;42.658;23.320;2023-04-24T03:08:00;43;38;
77699;PMS5003;66867;42.658;23.320;2023-04-24T03:09:00;41;38;
77699;PMS5003;66867;42.658;23.320;2023-04-24T03:10:00;40;36;
77699;PMS5003;66867;42.658;23.320;2023-04-24T03:11:00;36;33;
77699;PMS5003;66867;42.658;23.320;2023-04-24T03:12:00;35;34;
77699;PMS5003;66867;42.658;23.320;2023-04-24T03:13:00;38;36;
77699;PMS5003;66867;42.658;23.320;2023-04-24T03:14:00;37;34;
77699;PMS5003;66867;42.658;23.320;2023-04-24T03:15:00;36;34;
77699;PMS5003;66867;42.658;23.320;2023-04-24T03:16:00;35;32;
77699;PMS5003;66867;42.658;23.320;2023-04-24T03:17:00;32;31;
77699;PMS5003;66867;42.658;23.320;2023-04-24T03:18:00;37;34;
77699;PMS5003;66867;42.658;23.320;2023-04-24T03:19:00;41;35;
77699;PMS5003;66867;42.658;23.320;2023-04-24T03:20:00;42;38;
77699;PMS5003;66867;42.658;23.320;2023-04-24T03:21:00;39;36;
77699;PMS5003;66867;42.658;23.320;2023-04-24T03:22:02;44;39;
77699;PMS5003;66867;42.658;23.320;2023-04-24T03:23:00;40;36;
77699;PMS5003;66867;42.658;23.320;2023-04-24T03:24:00;38;36;
77699;PMS5003;66867;42.658;23.320;2023-04-24T03:25:00;40;36;
77699;PMS5003;66867;42.658;23.320;2023-04-24T03:26:00;39;35;
77699;PMS5003;66867;42.658;23.320;2023-04-24T03:27:00;38;36;
77699;PMS5003;66867;42.658;23.320;2023-04-24T03:28:00;42;37;
77699;PMS5003;66867;42.658;23.320;2023-04-24T03:29:00;38;35;
77699;PMS5003;66867;42.658;23.320;2023-04-24T03:30:00;42;38;
77699;PMS5003;66867;42.658;23.320;2023-04-24T03:31:00;38;35;
77699;PMS5003;66867;42.658;23.320;2023-04-24T03:32:00;41;36;
77699;PMS5003;66867;42.658;23.320;2023-04-24T03:33:00;43;38;
77699;PMS5003;66867;42.658;23.320;2023-04-24T03:34:00;37;35;
77699;PMS5003;66867;42.658;23.320;2023-04-24T03:35:00;46;40;
77699;PMS5003;66867;42.658;23.320;2023-04-24T03:36:00;39;36;
77699;PMS5003;66867;42.658;23.320;2023-04-24T03:37:00;45;37;
77699;PMS5003;66867;42.658;23.320;2023-04-24T03:38:00;42;38;
77699;PMS5003;66867;42.658;23.320;2023-04-24T03:39:00;40;37;
77699;PMS5003;66867;42.658;23.320;2023-04-24T03:40:01;40;36;
77699;PMS5003;66867;42.658;23.320;2023-04-24T03:41:00;41;37;
77699;PMS5003;66867;42.658;23.320;2023-04-24T03:42:00;40;36;
77699;PMS5003;66867;42.658;23.320;2023-04-24T03:43:00;41;37;
77699;PMS5003;66867;42.658;23.320;2023-04-24T03:44:00;43;39;
77699;PMS5003;66867;42.658;23.320;2023-04-24T03:45:00;42;37;
77699;PMS5003;66867;42.658;23.320;2023-04-24T03:46:00;44;38;
77699;PMS5003;66867;42.658;23.320;2023-04-24T03:47:00;42;38;
77699;PMS5003;66867;42.658;23.320;2023-04-24T03:48:00;44;39;
77699;PMS5003;66867;42.658;23.320;2023-04-24T03:49:00;43;38;
77699;PMS5003;66867;42.658;23.320;2023-04-24T03:50:00;42;38;
77699;PMS5003;66867;42.658;23.320;2023-04-24T03:51:00;42;38;
77699;PMS5003;66867;42.658;23.320;2023-04-24T03:52:00;46;39;
77699;PMS5003;66867;42.658;23.320;2023-04-24T03:53:00;41;36;
77699;PMS5003;66867;42.658;23.320;2023-04-24T03:54:00;43;38;
77699;PMS5003;66867;42.658;23.320;2023-04-24T03:55:00;42;38;
77699;PMS5003;66867;42.658;23.320;2023-04-24T03:56:00;42;38;
77699;PMS5003;66867;42.658;23.320;2023-04-24T03:57:00;42;37;
77699;PMS5003;66867;42.658;23.320;2023-04-24T03:58:00;38;35;
77699;PMS5003;66867;42.658;23.320;2023-04-24T03:59:00;40;37;
77699;PMS5003;66867;42.658;23.320;2023-04-24T04:00:00;41;37;
77699;PMS5003;66867;42.658;23.320;2023-04-24T04:01:00;39;36;
77699;PMS5003;66867;42.658;23.320;2023-04-24T04:02:00;43;38;
77699;PMS5003;66867;42.658;23.320;2023-04-24T04:03:00;37;33;
77699;PMS5003;66867;42.658;23.320;2023-04-24T04:04:00;43;38;
77699;PMS5003;66867;42.658;23.320;2023-04-24T04:05:00;39;36;
77699;PMS5003;66867;42.658;23.320;2023-04-24T04:06:00;39;36;
77699;PMS5003;66867;42.658;23.320;2023-04-24T04:07:00;44;38;
77699;PMS5003;66867;42.658;23.320;2023-04-24T04:08:00;40;36;
77699;PMS5003;66867;42.658;23.320;2023-04-24T04:09:00;41;36;
77699;PMS5003;66867;42.658;23.320;2023-04-24T04:10:00;43;38;
77699;PMS5003;66867;42.658;23.320;2023-04-24T04:11:00;44;38;
77699;PMS5003;66867;42.658;23.320;2023-04-24T04:12:00;40;37;
77699;PMS5003;66867;42.658;23.320;2023-04-24T04:13:00;44;38;
77699;PMS5003;66867;42.658;23.320;2023-04-24T04:14:00;41;37;
77699;PMS5003;66867;42.658;23.320;2023-04-24T04:15:00;45;39;
77699;PMS5003;66867;42.658;23.320;2023-04-24T04:16:00;41;38;
77699;PMS5003;66867;42.658;23.320;2023-04-24T04:17:00;42;38;
77699;PMS5003;66867;42.658;23.320;2023-04-24T04:18:00;36;34;
77699;PMS5003;66867;42.658;23.320;2023-04-24T04:19:00;43;39;
77699;PMS5003;66867;42.658;23.320;2023-04-24T04:20:00;40;36;
77699;PMS5003;66867;42.658;23.320;2023-04-24T04:21:00;40;35;
77699;PMS5003;66867;42.658;23.320;2023-04-24T04:22:00;40;35;
77699;PMS5003;66867;42.658;23.320;2023-04-24T04:23:00;43;36;
77699;PMS5003;66867;42.658;23.320;2023-04-24T04:24:00;40;35;
77699;PMS5003;66867;42.658;23.320;2023-04-24T04:25:00;43;38;
77699;PMS5003;66867;42.658;23.320;2023-04-24T04:26:00;38;36;
77699;PMS5003;66867;42.658;23.320;2023-04-24T04:27:00;41;35;
77699;PMS5003;66867;42.658;23.320;2023-04-24T04:28:00;35;33;
77699;PMS5003;66867;42.658;23.320;2023-04-24T04:29:00;40;36;
77699;PMS5003;66867;42.658;23.320;2023-04-24T04:30:01;44;39;
77699;PMS5003;66867;42.658;23.320;2023-04-24T04:31:00;40;36;
77699;PMS5003;66867;42.658;23.320;2023-04-24T04:32:00;42;35;
77699;PMS5003;66867;42.658;23.320;2023-04-24T04:33:00;40;35;
77699;PMS5003;66867;42.658;23.320;2023-04-24T04:34:00;44;39;
77699;PMS5003;66867;42.658;23.320;2023-04-24T04:35:01;46;39;
77699;PMS5003;66867;42.658;23.320;2023-04-24T04:36:00;41;38;
77699;PMS5003;66867;42.658;23.320;2023-04-24T04:37:00;41;37;
77699;PMS5003;66867;42.658;23.320;2023-04-24T04:38:00;45;39;
77699;PMS5003;66867;42.658;23.320;2023-04-24T04:39:00;40;35;
77699;PMS5003;66867;42.658;23.320;2023-04-24T04:40:01;38;35;
77699;PMS5003;66867;42.658;23.320;2023-04-24T04:41:00;40;36;
77699;PMS5003;66867;42.658;23.320;2023-04-24T04:42:00;43;37;
77699;PMS5003;66867;42.658;23.320;2023-04-24T04:43:00;39;35;
77699;PMS5003;66867;42.658;23.320;2023-04-24T04:44:01;43;38;
77699;PMS5003;66867;42.658;23.320;2023-04-24T04:45:00;37;35;
77699;PMS5003;66867;42.658;23.320;2023-04-24T04:46:00;39;36;
77699;PMS5003;66867;42.658;23.320;2023-04-24T04:47:00;34;33;
77699;PMS5003;66867;42.658;23.320;2023-04-24T04:48:01;36;34;
77699;PMS5003;66867;42.658;23.320;2023-04-24T04:49:01;45;38;
77699;PMS5003;66867;42.658;23.320;2023-04-24T04:50:00;39;35;
77699;PMS5003;66867;42.658;23.320;2023-04-24T04:51:00;36;34;
77699;PMS5003;66867;42.658;23.320;2023-04-24T04:52:00;37;35;
77699;PMS5003;66867;42.658;23.320;2023-04-24T04:53:00;43;38;
77699;PMS5003;66867;42.658;23.320;2023-04-24T04:54:00;41;35;
77699;PMS5003;66867;42.658;23.320;2023-04-24T04:55:00;37;34;
77699;PMS5003;66867;42.658;23.320;2023-04-24T04:56:00;34;33;
77699;PMS5003;66867;42.658;23.320;2023-04-24T04:57:00;37;34;
77699;PMS5003;66867;42.658;23.320;2023-04-24T04:58:00;40;35;
77699;PMS5003;66867;42.658;23.320;2023-04-24T04:59:00;41;36;
77699;PMS5003;66867;42.658;23.320;2023-04-24T05:00:00;41;37;
77699;PMS5003;66867;42.658;23.320;2023-04-24T05:01:00;41;36;
77699;PMS5003;66867;42.658;23.320;2023-04-24T05:02:00;37;34;
77699;PMS5003;66867;42.658;23.320;2023-04-24T05:03:00;41;36;
77699;PMS5003;66867;42.658;23.320;2023-04-24T05:04:00;34;33;
77699;PMS5003;66867;42.658;23.320;2023-04-24T05:05:00;36;34;
77699;PMS5003;66867;42.658;23.320;2023-04-24T05:06:00;42;36;
77699;PMS5003;66867;42.658;23.320;2023-04-24T05:07:00;39;35;
77699;PMS5003;66867;42.658;23.320;2023-04-24T05:08:00;41;36;
77699;PMS5003;66867;42.658;23.320;2023-04-24T05:09:00;37;34;
77699;PMS5003;66867;42.658;23.320;2023-04-24T05:10:00;36;33;
77699;PMS5003;66867;42.658;23.320;2023-04-24T05:11:00;38;35;
77699;PMS5003;66867;42.658;23.320;2023-04-24T05:12:00;35;33;
77699;PMS5003;66867;42.658;23.320;2023-04-24T05:13:00;35;33;
77699;PMS5003;66867;42.658;23.320;2023-04-24T05:14:00;33;32;
77699;PMS5003;66867;42.658;23.320;2023-04-24T05:15:00;36;34;
77699;PMS5003;66867;42.658;23.320;2023-04-24T05:16:00;33;32;
77699;PMS5003;66867;42.658;23.320;2023-04-24T05:17:00;34;32;
77699;PMS5003;66867;42.658;23.320;2023-04-24T05:18:00;36;32;
77699;PMS5003;66867;42.658;23.320;2023-04-24T05:19:00;32;30;
77699;PMS5003;66867;42.658;23.320;2023-04-24T05:20:00;33;32;
77699;PMS5003;66867;42.658;23.320;2023-04-24T05:21:00;28;28;
77699;PMS5003;66867;42.658;23.320;2023-04-24T05:22:00;29;29;
77699;PMS5003;66867;42.658;23.320;2023-04-24T05:23:00;26;26;
77699;PMS5003;66867;42.658;23.320;2023-04-24T05:24:00;32;31;
77699;PMS5003;66867;42.658;23.320;2023-04-24T05:25:00;32;32;
77699;PMS5003;66867;42.658;23.320;2023-04-24T05:26:00;31;30;
77699;PMS5003;66867;42.658;23.320;2023-04-24T05:27:00;28;28;
77699;PMS5003;66867;42.658;23.320;2023-04-24T05:28:00;28;28;
77699;PMS5003;66867;42.658;23.320;2023-04-24T05:29:00;26;25;
77699;PMS5003;66867;42.658;23.320;2023-04-24T05:30:00;26;26;
77699;PMS5003;66867;42.658;23.320;2023-04-24T05:31:00;30;29;
77699;PMS5003;66867;42.658;23.320;2023-04-24T05:32:00;31;30;
77699;PMS5003;66867;42.658;23.320;2023-04-24T05:33:00;28;28;
77699;PMS5003;66867;42.658;23.320;2023-04-24T05:34:00;30;30;
77699;PMS5003;66867;42.658;23.320;2023-04-24T05:35:00;30;30;
77699;PMS5003;66867;42.658;23.320;2023-04-24T05:40:00;30;28;
77699;PMS5003;66867;42.658;23.320;2023-04-24T05:41:00;29;29;
77699;PMS5003;66867;42.658;23.320;2023-04-24T05:42:00;25;24;
77699;PMS5003;66867;42.658;23.320;2023-04-24T05:43:00;30;29;
77699;PMS5003;66867;42.658;23.320;2023-04-24T05:44:00;31;30;
77699;PMS5003;66867;42.658;23.320;2023-04-24T05:45:00;26;26;
77699;PMS5003;66867;42.658;23.320;2023-04-24T05:46:00;27;27;
77699;PMS5003;66867;42.658;23.320;2023-04-24T05:47:00;31;29;
77699;PMS5003;66867;42.658;23.320;2023-04-24T05:48:00;26;26;
77699;PMS5003;66867;42.658;23.320;2023-04-24T05:49:00;31;31;
77699;PMS5003;66867;42.658;23.320;2023-04-24T05:50:00;35;33;
77699;PMS5003;66867;42.658;23.320;2023-04-24T05:51:00;32;30;
77699;PMS5003;66867;42.658;23.320;2023-04-24T05:52:00;32;32;
77699;PMS5003;66867;42.658;23.320;2023-04-24T05:53:00;27;26;
77699;PMS5003;66867;42.658;23.320;2023-04-24T05:54:00;30;30;
77699;PMS5003;66867;42.658;23.320;2023-04-24T05:55:00;33;31;
77699;PMS5003;66867;42.658;23.320;2023-04-24T05:56:00;27;27;
77699;PMS5003;66867;42.658;23.320;2023-04-24T05:57:00;29;29;
77699;PMS5003;66867;42.658;23.320;2023-04-24T05:58:00;32;32;
77699;PMS5003;66867;42.658;23.320;2023-04-24T05:59:00;32;31;
77699;PMS5003;66867;42.658;23.320;2023-04-24T06:00:00;29;28;
77699;PMS5003;66867;42.658;23.320;2023-04-24T06:01:00;30;29;
77699;PMS5003;66867;42.658;23.320;2023-04-24T06:02:00;32;31;
77699;PMS5003;66867;42.658;23.320;2023-04-24T06:03:00;30;29;
77699;PMS5003;66867;42.658;23.320;2023-04-24T06:04:00;32;31;
77699;PMS5003;66867;42.658;23.320;2023-04-24T06:05:00;28;27;
77699;PMS5003;66867;42.658;23.320;2023-04-24T06:06:00;30;28;
77699;PMS5003;66867;42.658;23.320;2023-04-24T06:07:00;31;30;
77699;PMS5003;66867;42.658;23.320;2023-04-24T06:08:00;33;31;
77699;PMS5003;66867;42.658;23.320;2023-04-24T06:09:00;36;33;
77699;PMS5003;66867;42.658;23.320;2023-04-24T06:10:00;31;29;
77699;PMS5003;66867;42.658;23.320;2023-04-24T06:11:00;31;30;
77699;PMS5003;66867;42.658;23.320;2023-04-24T06:12:00;31;29;
77699;PMS5003;66867;42.658;23.320;2023-04-24T06:13:00;34;32;
77699;PMS5003;66867;42.658;23.320;2023-04-24T06:14:00;31;31;
77699;PMS5003;66867;42.658;23.320;2023-04-24T06:15:00;30;29;
77699;PMS5003;66867;42.658;23.320;2023-04-24T06:16:00;32;31;
77699;PMS5003;66867;42.658;23.320;2023-04-24T06:17:00;35;33;
77699;PMS5003;66867;42.658;23.320;2023-04-24T06:18:00;34;33;
77699;PMS5003;66867;42.658;23.320;2023-04-24T06:19:00;32;31;
77699;PMS5003;66867;42.658;23.320;2023-04-24T06:20:00;32;31;
77699;PMS5003;66867;42.658;23.320;2023-04-24T06:21:00;30;30;
77699;PMS5003;66867;42.658;23.320;2023-04-24T06:22:00;40;33;
77699;PMS5003;66867;42.658;23.320;2023-04-24T06:23:00;40;34;
77699;PMS5003;66867;42.658;23.320;2023-04-24T06:24:00;31;30;
77699;PMS5003;66867;42.658;23.320;2023-04-24T06:25:00;31;30;
77699;PMS5003;66867;42.658;23.320;2023-04-24T06:26:00;32;31;
77699;PMS5003;66867;42.658;23.320;2023-04-24T06:27:00;31;31;
77699;PMS5003;66867;42.658;23.320;2023-04-24T06:28:00;37;34;
77699;PMS5003;66867;42.658;23.320;2023-04-24T06:29:00;31;31;
77699;PMS5003;66867;42.658;23.320;2023-04-24T06:30:00;34;31;
77699;PMS5003;66867;42.658;23.320;2023-04-24T06:31:00;32;31;
77699;PMS5003;66867;42.658;23.320;2023-04-24T06:32:00;34;32;
77699;PMS5003;66867;42.658;23.320;2023-04-24T06:33:00;37;34;
77699;PMS5003;66867;42.658;23.320;2023-04-24T06:34:00;37;33;
77699;PMS5003;66867;42.658;23.320;2023-04-24T06:35:00;39;36;